sensor_id;sensor_type;location;lat;lon;timestamp;P1;P2;P0
77515;PMS5003;66627;29.424;-98.496;2023-03-24T00:01:36;11;11;
77515;PMS5003;66627;29.424;-98.496;2023-03-24T00:04:01;9;9;
77515;PMS5003;66627;29.424;-98.496;2023-03-24T00:06:26;9;9;
77515;PMS5003;66627;29.424;-98.496;2023-03-24T00:08:52;11;9;
77515;PMS5003;66627;29.424;-98.496;2023-03-24T00:11:18;17;12;
77515;PMS5003;66627;29.424;-98.496;2023-03-24T00:13:43;12;10;
77515;PMS5003;66627;29.424;-98.496;2023-03-24T00:16:10;10;10;
77515;PMS5003;66627;29.424;-98.496;2023-03-24T00:18:34;12;11;
77515;PMS5003;66627;29.424;-98.496;2023-03-24T00:20:59;9;9;
77515;PMS5003;66627;29.424;-98.496;2023-03-24T00:23:25;13;13;
77515;PMS5003;66627;29.424;-98.496;2023-03-24T00:28:15;11;11;
77515;PMS5003;66627;29.424;-98.496;2023-03-24T00:30:41;10;9;
77515;PMS5003;66627;29.424;-98.496;2023-03-24T00:33:06;12;12;
77515;PMS5003;66627;29.424;-98.496;2023-03-24T00:35:31;13;13;
77515;PMS5003;66627;29.424;-98.496;2023-03-24T00:37:58;15;13;
77515;PMS5003;66627;29.424;-98.496;2023-03-24T00:40:22;12;12;
77515;PMS5003;66627;29.424;-98.496;2023-03-24T00:42:48;12;12;
77515;PMS5003;66627;29.424;-98.496;2023-03-24T00:45:14;13;11;
77515;PMS5003;66627;29.424;-98.496;2023-03-24T00:47:38;14;12;
77515;PMS5003;66627;29.424;-98.496;2023-03-24T00:50:04;12;11;
77515;PMS5003;66627;29.424;-98.496;2023-03-24T00:52:29;13;12;
77515;PMS5003;66627;29.424;-98.496;2023-03-24T00:54:54;10;10;
77515;PMS5003;66627;29.424;-98.496;2023-03-24T00:57:20;16;14;
77515;PMS5003;66627;29.424;-98.496;2023-03-24T00:59:45;12;12;
77515;PMS5003;66627;29.424;-98.496;2023-03-24T01:02:10;22;14;
77515;PMS5003;66627;29.424;-98.496;2023-03-24T01:04:35;14;14;
77515;PMS5003;66627;29.424;-98.496;2023-03-24T01:07:01;15;15;
77515;PMS5003;66627;29.424;-98.496;2023-03-24T01:09:27;17;16;
77515;PMS5003;66627;29.424;-98.496;2023-03-24T01:11:52;11;11;
77515;PMS5003;66627;29.424;-98.496;2023-03-24T01:14:17;15;12;
77515;PMS5003;66627;29.424;-98.496;2023-03-24T01:16:43;14;12;
77515;PMS5003;66627;29.424;-98.496;2023-03-24T01:19:09;17;16;
77515;PMS5003;66627;29.424;-98.496;2023-03-24T01:21:34;15;14;
77515;PMS5003;66627;29.424;-98.496;2023-03-24T01:23:59;13;13;
77515;PMS5003;66627;29.424;-98.496;2023-03-24T01:26:24;14;14;
77515;PMS5003;66627;29.424;-98.496;2023-03-24T01:28:49;13;12;
77515;PMS5003;66627;29.424;-98.496;2023-03-24T01:31:15;16;12;
77515;PMS5003;66627;29.424;-98.496;2023-03-24T01:33:41;13;13;
77515;PMS5003;66627;29.424;-98.496;2023-03-24T01:36:06;20;16;
77515;PMS5003;66627;29.424;-98.496;2023-03-24T01:38:31;17;13;
77515;PMS5003;66627;29.424;-98.496;2023-03-24T01:40:56;10;10;
77515;PMS5003;66627;29.424;-98.496;2023-03-24T01:43:22;17;15;
77515;PMS5003;66627;29.424;-98.496;2023-03-24T01:45:53;15;12;
77515;PMS5003;66627;29.424;-98.496;2023-03-24T01:48:13;20;17;
77515;PMS5003;66627;29.424;-98.496;2023-03-24T01:50:39;14;14;
77515;PMS5003;66627;29.424;-98.496;2023-03-24T01:53:04;16;16;
77515;PMS5003;66627;29.424;-98.496;2023-03-24T01:55:30;14;12;
77515;PMS5003;66627;29.424;-98.496;2023-03-24T01:57:57;14;14;
77515;PMS5003;66627;29.424;-98.496;2023-03-24T02:00:20;16;15;
77515;PMS5003;66627;29.424;-98.496;2023-03-24T02:02:46;17;14;
77515;PMS5003;66627;29.424;-98.496;2023-03-24T02:05:11;20;19;
77515;PMS5003;66627;29.424;-98.496;2023-03-24T02:07:38;17;15;
77515;PMS5003;66627;29.424;-98.496;2023-03-24T02:10:02;18;16;
77515;PMS5003;66627;29.424;-98.496;2023-03-24T02:12:26;13;13;
77515;PMS5003;66627;29.424;-98.496;2023-03-24T02:14:52;17;17;
77515;PMS5003;66627;29.424;-98.496;2023-03-24T02:17:22;15;14;
77515;PMS5003;66627;29.424;-98.496;2023-03-24T02:27:01;15;14;
77515;PMS5003;66627;29.424;-98.496;2023-03-24T02:41:32;18;17;
77515;PMS5003;66627;29.424;-98.496;2023-03-24T02:43:59;18;15;
77515;PMS5003;66627;29.424;-98.496;2023-03-24T02:46:23;23;18;
77515;PMS5003;66627;29.424;-98.496;2023-03-24T02:48:56;22;17;
77515;PMS5003;66627;29.424;-98.496;2023-03-24T02:51:15;25;24;
77515;PMS5003;66627;29.424;-98.496;2023-03-24T02:53:42;16;14;
77515;PMS5003;66627;29.424;-98.496;2023-03-24T02:56:06;20;20;
77515;PMS5003;66627;29.424;-98.496;2023-03-24T02:58:31;20;18;
77515;PMS5003;66627;29.424;-98.496;2023-03-24T03:00:56;19;17;
77515;PMS5003;66627;29.424;-98.496;2023-03-24T03:03:22;25;22;
77515;PMS5003;66627;29.424;-98.496;2023-03-24T03:05:48;20;19;
77515;PMS5003;66627;29.424;-98.496;2023-03-24T03:08:12;22;20;
77515;PMS5003;66627;29.424;-98.496;2023-03-24T03:10:37;29;23;
77515;PMS5003;66627;29.424;-98.496;2023-03-24T03:13:04;19;18;
77515;PMS5003;66627;29.424;-98.496;2023-03-24T03:15:28;30;23;
77515;PMS5003;66627;29.424;-98.496;2023-03-24T03:17:54;21;19;
77515;PMS5003;66627;29.424;-98.496;2023-03-24T03:20:19;22;22;
77515;PMS5003;66627;29.424;-98.496;2023-03-24T03:22:45;22;17;
77515;PMS5003;66627;29.424;-98.496;2023-03-24T03:25:10;21;19;
77515;PMS5003;66627;29.424;-98.496;2023-03-24T03:27:34;20;18;
77515;PMS5003;66627;29.424;-98.496;2023-03-24T03:30:01;27;21;
77515;PMS5003;66627;29.424;-98.496;2023-03-24T03:32:26;20;20;
77515;PMS5003;66627;29.424;-98.496;2023-03-24T03:34:53;28;25;
77515;PMS5003;66627;29.424;-98.496;2023-03-24T03:37:18;31;26;
77515;PMS5003;66627;29.424;-98.496;2023-03-24T03:39:42;26;23;
77515;PMS5003;66627;29.424;-98.496;2023-03-24T03:42:06;24;22;
77515;PMS5003;66627;29.424;-98.496;2023-03-24T03:44:31;22;22;
77515;PMS5003;66627;29.424;-98.496;2023-03-24T03:46:56;24;24;
77515;PMS5003;66627;29.424;-98.496;2023-03-24T03:49:21;22;19;
77515;PMS5003;66627;29.424;-98.496;2023-03-24T03:51:46;24;23;
77515;PMS5003;66627;29.424;-98.496;2023-03-24T03:54:12;24;23;
77515;PMS5003;66627;29.424;-98.496;2023-03-24T03:56:37;25;23;
77515;PMS5003;66627;29.424;-98.496;2023-03-24T03:59:03;23;21;
77515;PMS5003;66627;29.424;-98.496;2023-03-24T04:01:29;23;18;
77515;PMS5003;66627;29.424;-98.496;2023-03-24T04:06:21;20;19;
77515;PMS5003;66627;29.424;-98.496;2023-03-24T04:08:46;21;20;
77515;PMS5003;66627;29.424;-98.496;2023-03-24T04:13:36;30;27;
77515;PMS5003;66627;29.424;-98.496;2023-03-24T04:16:01;26;22;
77515;PMS5003;66627;29.424;-98.496;2023-03-24T04:18:29;23;22;
77515;PMS5003;66627;29.424;-98.496;2023-03-24T04:20:52;26;25;
77515;PMS5003;66627;29.424;-98.496;2023-03-24T04:23:21;24;22;
77515;PMS5003;66627;29.424;-98.496;2023-03-24T04:25:44;27;24;
77515;PMS5003;66627;29.424;-98.496;2023-03-24T04:28:08;26;24;
77515;PMS5003;66627;29.424;-98.496;2023-03-24T04:30:34;27;26;
77515;PMS5003;66627;29.424;-98.496;2023-03-24T04:32:58;29;27;
77515;PMS5003;66627;29.424;-98.496;2023-03-24T04:35:24;23;23;
77515;PMS5003;66627;29.424;-98.496;2023-03-24T04:37:55;29;27;
77515;PMS5003;66627;29.424;-98.496;2023-03-24T04:40:13;27;26;
77515;PMS5003;66627;29.424;-98.496;2023-03-24T04:42:40;31;29;
77515;PMS5003;66627;29.424;-98.496;2023-03-24T04:45:05;36;28;
77515;PMS5003;66627;29.424;-98.496;2023-03-24T04:47:31;29;26;
77515;PMS5003;66627;29.424;-98.496;2023-03-24T04:49:59;25;24;
77515;PMS5003;66627;29.424;-98.496;2023-03-24T04:52:21;29;26;
77515;PMS5003;66627;29.424;-98.496;2023-03-24T04:54:46;33;30;
77515;PMS5003;66627;29.424;-98.496;2023-03-24T04:57:12;34;30;
77515;PMS5003;66627;29.424;-98.496;2023-03-24T04:59:37;36;33;
77515;PMS5003;66627;29.424;-98.496;2023-03-24T05:02:03;26;25;
77515;PMS5003;66627;29.424;-98.496;2023-03-24T05:04:28;31;29;
77515;PMS5003;66627;29.424;-98.496;2023-03-24T05:06:53;35;31;
77515;PMS5003;66627;29.424;-98.496;2023-03-24T05:09:20;24;22;
77515;PMS5003;66627;29.424;-98.496;2023-03-24T05:11:44;31;25;
77515;PMS5003;66627;29.424;-98.496;2023-03-24T05:14:09;35;31;
77515;PMS5003;66627;29.424;-98.496;2023-03-24T05:16:35;26;25;
77515;PMS5003;66627;29.424;-98.496;2023-03-24T05:19:00;27;26;
77515;PMS5003;66627;29.424;-98.496;2023-03-24T05:21:26;34;24;
77515;PMS5003;66627;29.424;-98.496;2023-03-24T05:23:50;36;29;
77515;PMS5003;66627;29.424;-98.496;2023-03-24T05:26:16;30;29;
77515;PMS5003;66627;29.424;-98.496;2023-03-24T05:28:41;34;31;
77515;PMS5003;66627;29.424;-98.496;2023-03-24T05:31:07;37;31;
77515;PMS5003;66627;29.424;-98.496;2023-03-24T05:33:32;34;33;
77515;PMS5003;66627;29.424;-98.496;2023-03-24T05:35:57;30;28;
77515;PMS5003;66627;29.424;-98.496;2023-03-24T05:38:22;39;34;
77515;PMS5003;66627;29.424;-98.496;2023-03-24T05:40:48;29;28;
77515;PMS5003;66627;29.424;-98.496;2023-03-24T05:43:13;37;34;
77515;PMS5003;66627;29.424;-98.496;2023-03-24T05:45:38;31;27;
77515;PMS5003;66627;29.424;-98.496;2023-03-24T05:48:04;34;29;
77515;PMS5003;66627;29.424;-98.496;2023-03-24T05:50:29;29;25;
77515;PMS5003;66627;29.424;-98.496;2023-03-24T05:52:55;29;28;
77515;PMS5003;66627;29.424;-98.496;2023-03-24T05:55:20;32;28;
77515;PMS5003;66627;29.424;-98.496;2023-03-24T05:57:46;29;28;
77515;PMS5003;66627;29.424;-98.496;2023-03-24T06:00:12;29;25;
77515;PMS5003;66627;29.424;-98.496;2023-03-24T06:02:38;31;30;
77515;PMS5003;66627;29.424;-98.496;2023-03-24T06:05:03;36;35;
77515;PMS5003;66627;29.424;-98.496;2023-03-24T06:07:28;30;25;
77515;PMS5003;66627;29.424;-98.496;2023-03-24T06:09:54;28;27;
77515;PMS5003;66627;29.424;-98.496;2023-03-24T06:12:19;28;24;
77515;PMS5003;66627;29.424;-98.496;2023-03-24T06:14:44;31;31;
77515;PMS5003;66627;29.424;-98.496;2023-03-24T06:17:10;29;27;
77515;PMS5003;66627;29.424;-98.496;2023-03-24T06:19:35;31;29;
77515;PMS5003;66627;29.424;-98.496;2023-03-24T06:22:01;28;25;
77515;PMS5003;66627;29.424;-98.496;2023-03-24T06:24:26;31;30;
77515;PMS5003;66627;29.424;-98.496;2023-03-24T06:26:51;29;28;
77515;PMS5003;66627;29.424;-98.496;2023-03-24T06:29:17;36;33;
77515;PMS5003;66627;29.424;-98.496;2023-03-24T06:31:42;32;29;
77515;PMS5003;66627;29.424;-98.496;2023-03-24T06:34:08;36;33;
77515;PMS5003;66627;29.424;-98.496;2023-03-24T06:36:33;34;29;
77515;PMS5003;66627;29.424;-98.496;2023-03-24T06:38:59;31;31;
77515;PMS5003;66627;29.424;-98.496;2023-03-24T06:41:24;36;35;
77515;PMS5003;66627;29.424;-98.496;2023-03-24T06:43:49;38;35;
77515;PMS5003;66627;29.424;-98.496;2023-03-24T06:46:14;34;32;
77515;PMS5003;66627;29.424;-98.496;2023-03-24T06:48:40;30;28;
77515;PMS5003;66627;29.424;-98.496;2023-03-24T06:51:06;30;28;
77515;PMS5003;66627;29.424;-98.496;2023-03-24T06:53:31;28;28;
77515;PMS5003;66627;29.424;-98.496;2023-03-24T06:55:57;32;31;
77515;PMS5003;66627;29.424;-98.496;2023-03-24T06:58:22;30;27;
77515;PMS5003;66627;29.424;-98.496;2023-03-24T07:00:48;29;25;
77515;PMS5003;66627;29.424;-98.496;2023-03-24T07:03:14;26;26;
77515;PMS5003;66627;29.424;-98.496;2023-03-24T07:05:38;33;29;
77515;PMS5003;66627;29.424;-98.496;2023-03-24T07:08:04;27;26;
77515;PMS5003;66627;29.424;-98.496;2023-03-24T07:10:30;31;28;
77515;PMS5003;66627;29.424;-98.496;2023-03-24T07:12:55;34;31;
77515;PMS5003;66627;29.424;-98.496;2023-03-24T07:15:21;26;25;
77515;PMS5003;66627;29.424;-98.496;2023-03-24T07:17:46;24;23;
77515;PMS5003;66627;29.424;-98.496;2023-03-24T07:20:11;23;23;
77515;PMS5003;66627;29.424;-98.496;2023-03-24T07:22:36;24;24;
77515;PMS5003;66627;29.424;-98.496;2023-03-24T07:25:03;24;20;
77515;PMS5003;66627;29.424;-98.496;2023-03-24T07:27:28;21;21;
77515;PMS5003;66627;29.424;-98.496;2023-03-24T07:29:54;21;21;
77515;PMS5003;66627;29.424;-98.496;2023-03-24T07:32:20;27;25;
77515;PMS5003;66627;29.424;-98.496;2023-03-24T07:34:45;25;24;
77515;PMS5003;66627;29.424;-98.496;2023-03-24T07:37:11;22;22;
77515;PMS5003;66627;29.424;-98.496;2023-03-24T07:39:36;23;22;
77515;PMS5003;66627;29.424;-98.496;2023-03-24T07:42:01;24;24;
77515;PMS5003;66627;29.424;-98.496;2023-03-24T07:44:27;24;24;
77515;PMS5003;66627;29.424;-98.496;2023-03-24T07:46:52;28;25;
77515;PMS5003;66627;29.424;-98.496;2023-03-24T07:49:18;23;21;
77515;PMS5003;66627;29.424;-98.496;2023-03-24T07:51:43;27;22;
77515;PMS5003;66627;29.424;-98.496;2023-03-24T07:54:09;22;22;
77515;PMS5003;66627;29.424;-98.496;2023-03-24T07:56:35;22;19;
77515;PMS5003;66627;29.424;-98.496;2023-03-24T07:59:00;22;22;
77515;PMS5003;66627;29.424;-98.496;2023-03-24T08:01:26;22;21;
77515;PMS5003;66627;29.424;-98.496;2023-03-24T08:03:51;25;22;
77515;PMS5003;66627;29.424;-98.496;2023-03-24T08:06:17;24;22;
77515;PMS5003;66627;29.424;-98.496;2023-03-24T08:08:42;21;20;
77515;PMS5003;66627;29.424;-98.496;2023-03-24T08:11:09;22;22;
77515;PMS5003;66627;29.424;-98.496;2023-03-24T08:13:34;18;18;
77515;PMS5003;66627;29.424;-98.496;2023-03-24T08:16:00;20;20;
77515;PMS5003;66627;29.424;-98.496;2023-03-24T08:18:25;20;20;
77515;PMS5003;66627;29.424;-98.496;2023-03-24T08:20:52;21;19;
77515;PMS5003;66627;29.424;-98.496;2023-03-24T08:23:15;20;18;
77515;PMS5003;66627;29.424;-98.496;2023-03-24T08:25:41;23;20;
77515;PMS5003;66627;29.424;-98.496;2023-03-24T08:28:07;21;20;
77515;PMS5003;66627;29.424;-98.496;2023-03-24T08:30:32;19;19;
77515;PMS5003;66627;29.424;-98.496;2023-03-24T08:32:59;27;24;
77515;PMS5003;66627;29.424;-98.496;2023-03-24T08:35:25;19;16;
77515;PMS5003;66627;29.424;-98.496;2023-03-24T08:37:48;18;18;
77515;PMS5003;66627;29.424;-98.496;2023-03-24T08:40:15;21;19;
77515;PMS5003;66627;29.424;-98.496;2023-03-24T08:42:40;16;16;
77515;PMS5003;66627;29.424;-98.496;2023-03-24T08:45:05;21;21;
77515;PMS5003;66627;29.424;-98.496;2023-03-24T08:47:30;25;23;
77515;PMS5003;66627;29.424;-98.496;2023-03-24T08:49:56;16;15;
77515;PMS5003;66627;29.424;-98.496;2023-03-24T08:52:21;18;17;
77515;PMS5003;66627;29.424;-98.496;2023-03-24T08:54:47;23;20;
77515;PMS5003;66627;29.424;-98.496;2023-03-24T08:57:12;24;23;
77515;PMS5003;66627;29.424;-98.496;2023-03-24T08:59:38;23;20;
77515;PMS5003;66627;29.424;-98.496;2023-03-24T09:02:03;22;19;
77515;PMS5003;66627;29.424;-98.496;2023-03-24T09:04:29;20;19;
77515;PMS5003;66627;29.424;-98.496;2023-03-24T09:06:54;21;17;
77515;PMS5003;66627;29.424;-98.496;2023-03-24T09:09:19;19;19;
77515;PMS5003;66627;29.424;-98.496;2023-03-24T09:11:44;28;21;
77515;PMS5003;66627;29.424;-98.496;2023-03-24T09:14:10;29;18;
77515;PMS5003;66627;29.424;-98.496;2023-03-24T09:16:35;20;17;
77515;PMS5003;66627;29.424;-98.496;2023-03-24T09:19:01;26;23;
77515;PMS5003;66627;29.424;-98.496;2023-03-24T09:21:26;22;21;
77515;PMS5003;66627;29.424;-98.496;2023-03-24T09:23:52;21;21;
77515;PMS5003;66627;29.424;-98.496;2023-03-24T09:26:17;19;19;
77515;PMS5003;66627;29.424;-98.496;2023-03-24T09:28:43;24;22;
77515;PMS5003;66627;29.424;-98.496;2023-03-24T09:31:08;24;19;
77515;PMS5003;66627;29.424;-98.496;2023-03-24T09:33:33;23;21;
77515;PMS5003;66627;29.424;-98.496;2023-03-24T09:36:00;24;22;
77515;PMS5003;66627;29.424;-98.496;2023-03-24T09:38:25;22;21;
77515;PMS5003;66627;29.424;-98.496;2023-03-24T09:40:52;19;18;
77515;PMS5003;66627;29.424;-98.496;2023-03-24T09:43:18;28;24;
77515;PMS5003;66627;29.424;-98.496;2023-03-24T09:45:43;24;22;
77515;PMS5003;66627;29.424;-98.496;2023-03-24T09:48:07;24;20;
77515;PMS5003;66627;29.424;-98.496;2023-03-24T09:50:33;21;20;
77515;PMS5003;66627;29.424;-98.496;2023-03-24T09:52:57;18;18;
77515;PMS5003;66627;29.424;-98.496;2023-03-24T09:55:23;24;21;
77515;PMS5003;66627;29.424;-98.496;2023-03-24T09:57:48;22;20;
77515;PMS5003;66627;29.424;-98.496;2023-03-24T10:00:16;22;20;
77515;PMS5003;66627;29.424;-98.496;2023-03-24T10:02:38;27;22;
77515;PMS5003;66627;29.424;-98.496;2023-03-24T10:07:31;25;22;
77515;PMS5003;66627;29.424;-98.496;2023-03-24T10:09:55;25;21;
77515;PMS5003;66627;29.424;-98.496;2023-03-24T10:12:23;21;19;
77515;PMS5003;66627;29.424;-98.496;2023-03-24T10:14:50;22;22;
77515;PMS5003;66627;29.424;-98.496;2023-03-24T10:17:12;20;19;
77515;PMS5003;66627;29.424;-98.496;2023-03-24T10:19:42;21;19;
77515;PMS5003;66627;29.424;-98.496;2023-03-24T10:22:03;20;20;
77515;PMS5003;66627;29.424;-98.496;2023-03-24T10:24:28;28;24;
77515;PMS5003;66627;29.424;-98.496;2023-03-24T10:26:54;22;20;
77515;PMS5003;66627;29.424;-98.496;2023-03-24T10:29:20;21;19;
77515;PMS5003;66627;29.424;-98.496;2023-03-24T10:31:43;25;21;
77515;PMS5003;66627;29.424;-98.496;2023-03-24T10:34:09;24;23;
77515;PMS5003;66627;29.424;-98.496;2023-03-24T10:36:33;24;20;
77515;PMS5003;66627;29.424;-98.496;2023-03-24T10:38:59;21;18;
77515;PMS5003;66627;29.424;-98.496;2023-03-24T10:41:25;18;18;
77515;PMS5003;66627;29.424;-98.496;2023-03-24T10:43:50;24;22;
77515;PMS5003;66627;29.424;-98.496;2023-03-24T10:46:16;20;19;
77515;PMS5003;66627;29.424;-98.496;2023-03-24T10:48:41;20;20;
77515;PMS5003;66627;29.424;-98.496;2023-03-24T10:51:06;20;20;
77515;PMS5003;66627;29.424;-98.496;2023-03-24T10:53:31;18;18;
77515;PMS5003;66627;29.424;-98.496;2023-03-24T10:55:56;23;21;
77515;PMS5003;66627;29.424;-98.496;2023-03-24T10:58:27;24;24;
77515;PMS5003;66627;29.424;-98.496;2023-03-24T11:00:47;23;22;
77515;PMS5003;66627;29.424;-98.496;2023-03-24T11:03:13;20;20;
77515;PMS5003;66627;29.424;-98.496;2023-03-24T11:05:38;24;24;
77515;PMS5003;66627;29.424;-98.496;2023-03-24T11:08:11;21;20;
77515;PMS5003;66627;29.424;-98.496;2023-03-24T11:10:29;20;20;
77515;PMS5003;66627;29.424;-98.496;2023-03-24T11:12:58;22;22;
77515;PMS5003;66627;29.424;-98.496;2023-03-24T11:15:20;20;19;
77515;PMS5003;66627;29.424;-98.496;2023-03-24T11:17:46;24;24;
77515;PMS5003;66627;29.424;-98.496;2023-03-24T11:20:15;23;23;
77515;PMS5003;66627;29.424;-98.496;2023-03-24T11:22:38;26;25;
77515;PMS5003;66627;29.424;-98.496;2023-03-24T11:25:02;21;20;
77515;PMS5003;66627;29.424;-98.496;2023-03-24T11:27:26;25;24;
77515;PMS5003;66627;29.424;-98.496;2023-03-24T11:29:52;23;23;
77515;PMS5003;66627;29.424;-98.496;2023-03-24T11:32:19;23;22;
77515;PMS5003;66627;29.424;-98.496;2023-03-24T11:34:44;24;24;
77515;PMS5003;66627;29.424;-98.496;2023-03-24T11:37:10;25;22;
77515;PMS5003;66627;29.424;-98.496;2023-03-24T11:39:34;25;25;
77515;PMS5003;66627;29.424;-98.496;2023-03-24T11:42:02;27;27;
77515;PMS5003;66627;29.424;-98.496;2023-03-24T11:44:24;22;19;
77515;PMS5003;66627;29.424;-98.496;2023-03-24T11:46:51;26;24;
77515;PMS5003;66627;29.424;-98.496;2023-03-24T11:49:17;25;24;
77515;PMS5003;66627;29.424;-98.496;2023-03-24T11:51:41;29;26;
77515;PMS5003;66627;29.424;-98.496;2023-03-24T11:54:08;30;28;
77515;PMS5003;66627;29.424;-98.496;2023-03-24T11:56:32;29;24;
77515;PMS5003;66627;29.424;-98.496;2023-03-24T11:58:58;26;24;
77515;PMS5003;66627;29.424;-98.496;2023-03-24T12:01:23;28;27;
77515;PMS5003;66627;29.424;-98.496;2023-03-24T12:03:50;25;25;
77515;PMS5003;66627;29.424;-98.496;2023-03-24T12:06:16;28;28;
77515;PMS5003;66627;29.424;-98.496;2023-03-24T12:08:40;25;23;
77515;PMS5003;66627;29.424;-98.496;2023-03-24T12:11:06;31;29;
77515;PMS5003;66627;29.424;-98.496;2023-03-24T12:13:32;28;27;
77515;PMS5003;66627;29.424;-98.496;2023-03-24T12:15:56;30;29;
77515;PMS5003;66627;29.424;-98.496;2023-03-24T12:18:25;36;28;
77515;PMS5003;66627;29.424;-98.496;2023-03-24T12:20:45;28;26;
77515;PMS5003;66627;29.424;-98.496;2023-03-24T12:23:11;28;24;
77515;PMS5003;66627;29.424;-98.496;2023-03-24T12:25:43;34;30;
77515;PMS5003;66627;29.424;-98.496;2023-03-24T12:28:05;27;22;
77515;PMS5003;66627;29.424;-98.496;2023-03-24T12:30:28;30;30;
77515;PMS5003;66627;29.424;-98.496;2023-03-24T12:32:55;29;26;
77515;PMS5003;66627;29.424;-98.496;2023-03-24T12:37:43;29;25;
77515;PMS5003;66627;29.424;-98.496;2023-03-24T12:42:33;31;27;
77515;PMS5003;66627;29.424;-98.496;2023-03-24T12:47:31;30;29;
77515;PMS5003;66627;29.424;-98.496;2023-03-24T12:49:58;32;28;
77515;PMS5003;66627;29.424;-98.496;2023-03-24T12:52:22;31;27;
77515;PMS5003;66627;29.424;-98.496;2023-03-24T12:54:40;38;28;
77515;PMS5003;66627;29.424;-98.496;2023-03-24T12:57:06;30;29;
77515;PMS5003;66627;29.424;-98.496;2023-03-24T12:59:32;35;31;
77515;PMS5003;66627;29.424;-98.496;2023-03-24T13:01:58;32;28;
77515;PMS5003;66627;29.424;-98.496;2023-03-24T13:04:22;33;30;
77515;PMS5003;66627;29.424;-98.496;2023-03-24T13:06:47;28;25;
77515;PMS5003;66627;29.424;-98.496;2023-03-24T13:09:13;33;32;
77515;PMS5003;66627;29.424;-98.496;2023-03-24T13:11:39;33;30;
77515;PMS5003;66627;29.424;-98.496;2023-03-24T13:14:02;30;28;
77515;PMS5003;66627;29.424;-98.496;2023-03-24T13:16:28;31;30;
77515;PMS5003;66627;29.424;-98.496;2023-03-24T13:18:53;30;27;
77515;PMS5003;66627;29.424;-98.496;2023-03-24T13:21:19;29;27;
77515;PMS5003;66627;29.424;-98.496;2023-03-24T13:23:45;33;31;
77515;PMS5003;66627;29.424;-98.496;2023-03-24T13:26:12;30;28;
77515;PMS5003;66627;29.424;-98.496;2023-03-24T13:28:37;26;24;
77515;PMS5003;66627;29.424;-98.496;2023-03-24T13:31:00;27;24;
77515;PMS5003;66627;29.424;-98.496;2023-03-24T13:33:26;27;23;
77515;PMS5003;66627;29.424;-98.496;2023-03-24T13:35:55;27;26;
77515;PMS5003;66627;29.424;-98.496;2023-03-24T13:38:17;32;27;
77515;PMS5003;66627;29.424;-98.496;2023-03-24T13:40:42;32;30;
77515;PMS5003;66627;29.424;-98.496;2023-03-24T13:43:09;24;22;
77515;PMS5003;66627;29.424;-98.496;2023-03-24T13:45:34;25;25;
77515;PMS5003;66627;29.424;-98.496;2023-03-24T13:48:03;28;28;
77515;PMS5003;66627;29.424;-98.496;2023-03-24T13:50:22;31;29;
77515;PMS5003;66627;29.424;-98.496;2023-03-24T13:52:48;28;26;
77515;PMS5003;66627;29.424;-98.496;2023-03-24T13:55:14;29;25;
77515;PMS5003;66627;29.424;-98.496;2023-03-24T13:57:39;31;28;
77515;PMS5003;66627;29.424;-98.496;2023-03-24T14:05:03;25;22;
77515;PMS5003;66627;29.424;-98.496;2023-03-24T14:12:16;31;26;
77515;PMS5003;66627;29.424;-98.496;2023-03-24T14:19:30;35;33;
77515;PMS5003;66627;29.424;-98.496;2023-03-24T14:22:03;30;29;
77515;PMS5003;66627;29.424;-98.496;2023-03-24T14:24:21;31;29;
77515;PMS5003;66627;29.424;-98.496;2023-03-24T14:26:46;38;30;
77515;PMS5003;66627;29.424;-98.496;2023-03-24T14:31:36;33;32;
77515;PMS5003;66627;29.424;-98.496;2023-03-24T14:34:06;31;30;
77515;PMS5003;66627;29.424;-98.496;2023-03-24T14:36:28;29;29;
77515;PMS5003;66627;29.424;-98.496;2023-03-24T14:38:53;30;28;
77515;PMS5003;66627;29.424;-98.496;2023-03-24T14:43:53;41;35;
77515;PMS5003;66627;29.424;-98.496;2023-03-24T14:46:12;39;37;
77515;PMS5003;66627;29.424;-98.496;2023-03-24T14:48:35;35;32;
77515;PMS5003;66627;29.424;-98.496;2023-03-24T14:51:00;35;31;
77515;PMS5003;66627;29.424;-98.496;2023-03-24T14:53:25;33;32;
77515;PMS5003;66627;29.424;-98.496;2023-03-24T14:55:50;32;30;
77515;PMS5003;66627;29.424;-98.496;2023-03-24T14:58:19;37;34;
77515;PMS5003;66627;29.424;-98.496;2023-03-24T15:00:42;31;30;
77515;PMS5003;66627;29.424;-98.496;2023-03-24T15:03:13;34;32;
77515;PMS5003;66627;29.424;-98.496;2023-03-24T15:05:33;29;29;
77515;PMS5003;66627;29.424;-98.496;2023-03-24T15:07:59;31;29;
77515;PMS5003;66627;29.424;-98.496;2023-03-24T15:10:23;34;32;
77515;PMS5003;66627;29.424;-98.496;2023-03-24T15:12:49;32;28;
77515;PMS5003;66627;29.424;-98.496;2023-03-24T15:15:15;32;27;
77515;PMS5003;66627;29.424;-98.496;2023-03-24T15:17:40;20;18;
77515;PMS5003;66627;29.424;-98.496;2023-03-24T15:20:05;17;16;
77515;PMS5003;66627;29.424;-98.496;2023-03-24T15:22:38;17;15;
77515;PMS5003;66627;29.424;-98.496;2023-03-24T15:24:56;14;14;
77515;PMS5003;66627;29.424;-98.496;2023-03-24T15:27:23;13;13;
77515;PMS5003;66627;29.424;-98.496;2023-03-24T15:29:52;15;14;
77515;PMS5003;66627;29.424;-98.496;2023-03-24T15:32:14;16;13;
77515;PMS5003;66627;29.424;-98.496;2023-03-24T15:34:39;14;12;
77515;PMS5003;66627;29.424;-98.496;2023-03-24T15:37:03;12;12;
77515;PMS5003;66627;29.424;-98.496;2023-03-24T15:39:28;12;11;
77515;PMS5003;66627;29.424;-98.496;2023-03-24T15:41:53;12;10;
77515;PMS5003;66627;29.424;-98.496;2023-03-24T15:44:19;11;11;
77515;PMS5003;66627;29.424;-98.496;2023-03-24T15:46:45;12;10;
77515;PMS5003;66627;29.424;-98.496;2023-03-24T15:49:15;11;10;
77515;PMS5003;66627;29.424;-98.496;2023-03-24T15:54:00;9;8;
77515;PMS5003;66627;29.424;-98.496;2023-03-24T15:56:26;11;11;
77515;PMS5003;66627;29.424;-98.496;2023-03-24T15:58:51;11;11;
77515;PMS5003;66627;29.424;-98.496;2023-03-24T16:01:17;11;11;
77515;PMS5003;66627;29.424;-98.496;2023-03-24T16:03:43;11;11;
77515;PMS5003;66627;29.424;-98.496;2023-03-24T16:06:11;11;10;
77515;PMS5003;66627;29.424;-98.496;2023-03-24T16:08:34;10;10;
77515;PMS5003;66627;29.424;-98.496;2023-03-24T16:10:59;9;7;
77515;PMS5003;66627;29.424;-98.496;2023-03-24T16:13:23;6;6;
77515;PMS5003;66627;29.424;-98.496;2023-03-24T16:15:53;15;12;
77515;PMS5003;66627;29.424;-98.496;2023-03-24T16:18:14;7;7;
77515;PMS5003;66627;29.424;-98.496;2023-03-24T16:20:39;6;5;
77515;PMS5003;66627;29.424;-98.496;2023-03-24T16:23:04;7;6;
77515;PMS5003;66627;29.424;-98.496;2023-03-24T16:25:29;11;10;
77515;PMS5003;66627;29.424;-98.496;2023-03-24T16:27:54;7;7;
77515;PMS5003;66627;29.424;-98.496;2023-03-24T16:30:21;8;8;
77515;PMS5003;66627;29.424;-98.496;2023-03-24T16:32:44;10;7;